Red Elm, South Dakota
Current Conditions -  °F | °C
As of 2:55 PM on Wednesday 22 Oct 2014 (Local Time) from KPHP Reporting Station
Clear Clear  
Wind Chill: 68°   Ceiling: Unl
Heat Index: 68°   Visibility: 10mi
Dew Point: 34°   Wind: 13mph
Humidity: 28%   Direction: 300°WNW
Pressure: 29.96"   Gusts: NA
Location:  45.0029°N, 101.639°W
Report Text: KPHP 222055Z AUTO 30011KT 10SM CLR 20/01 A2996 RMK AO2 SLP132 T02000011 56010
Loading
Personal Weather Stations






























Interactive Weather Map New forecast layout! Learn more

10-Day Weather Forecast

Advertisements
Track Severe Weather on mobile